sensor_id;sensor_type;location;lat;lon;timestamp;P1;durP1;ratioP1;P2;durP2;ratioP2
73575;SDS011;61859;49.204;8.140;2022-12-20T00:01:07;32.80;;;18.60;;
73575;SDS011;61859;49.204;8.140;2022-12-20T00:03:54;27.93;;;17.53;;
73575;SDS011;61859;49.204;8.140;2022-12-20T00:06:21;35.27;;;18.47;;
73575;SDS011;61859;49.204;8.140;2022-12-20T00:08:51;32.63;;;19.30;;
73575;SDS011;61859;49.204;8.140;2022-12-20T00:11:18;33.23;;;18.77;;
73575;SDS011;61859;49.204;8.140;2022-12-20T00:13:45;32.00;;;17.53;;
73575;SDS011;61859;49.204;8.140;2022-12-20T00:16:15;35.83;;;19.23;;
73575;SDS011;61859;49.204;8.140;2022-12-20T00:18:45;31.10;;;19.00;;
73575;SDS011;61859;49.204;8.140;2022-12-20T00:21:12;36.57;;;19.73;;
73575;SDS011;61859;49.204;8.140;2022-12-20T00:23:38;35.97;;;19.17;;
73575;SDS011;61859;49.204;8.140;2022-12-20T00:26:09;32.97;;;18.40;;
73575;SDS011;61859;49.204;8.140;2022-12-20T00:28:38;28.30;;;17.10;;
73575;SDS011;61859;49.204;8.140;2022-12-20T00:31:05;32.23;;;18.43;;
73575;SDS011;61859;49.204;8.140;2022-12-20T00:33:32;32.00;;;18.20;;
73575;SDS011;61859;49.204;8.140;2022-12-20T00:35:58;28.93;;;17.73;;
73575;SDS011;61859;49.204;8.140;2022-12-20T00:38:24;29.73;;;18.00;;
73575;SDS011;61859;49.204;8.140;2022-12-20T00:41:04;30.33;;;16.83;;
73575;SDS011;61859;49.204;8.140;2022-12-20T00:43:32;28.07;;;17.57;;
73575;SDS011;61859;49.204;8.140;2022-12-20T00:45:58;32.97;;;18.43;;
73575;SDS011;61859;49.204;8.140;2022-12-20T00:48:25;34.80;;;18.40;;
73575;SDS011;61859;49.204;8.140;2022-12-20T00:50:51;31.90;;;18.87;;
73575;SDS011;61859;49.204;8.140;2022-12-20T00:53:21;30.77;;;17.23;;
73575;SDS011;61859;49.204;8.140;2022-12-20T00:55:47;27.53;;;16.73;;
73575;SDS011;61859;49.204;8.140;2022-12-20T00:58:12;29.23;;;17.83;;
73575;SDS011;61859;49.204;8.140;2022-12-20T01:00:38;28.93;;;17.90;;
73575;SDS011;61859;49.204;8.140;2022-12-20T01:03:04;28.57;;;16.50;;
73575;SDS011;61859;49.204;8.140;2022-12-20T01:05:30;28.97;;;17.00;;
73575;SDS011;61859;49.204;8.140;2022-12-20T01:07:56;31.10;;;18.83;;
73575;SDS011;61859;49.204;8.140;2022-12-20T01:10:21;31.57;;;17.67;;
73575;SDS011;61859;49.204;8.140;2022-12-20T01:12:47;28.17;;;17.30;;
73575;SDS011;61859;49.204;8.140;2022-12-20T01:15:13;28.07;;;18.10;;
73575;SDS011;61859;49.204;8.140;2022-12-20T01:17:39;29.00;;;17.60;;
73575;SDS011;61859;49.204;8.140;2022-12-20T01:20:05;29.30;;;16.67;;
73575;SDS011;61859;49.204;8.140;2022-12-20T01:22:31;28.33;;;17.50;;
73575;SDS011;61859;49.204;8.140;2022-12-20T01:24:57;28.53;;;18.00;;
73575;SDS011;61859;49.204;8.140;2022-12-20T01:27:22;30.13;;;18.10;;
73575;SDS011;61859;49.204;8.140;2022-12-20T01:29:48;32.07;;;17.80;;
73575;SDS011;61859;49.204;8.140;2022-12-20T01:32:13;33.17;;;18.57;;
73575;SDS011;61859;49.204;8.140;2022-12-20T01:34:39;33.30;;;18.90;;
73575;SDS011;61859;49.204;8.140;2022-12-20T01:37:05;32.53;;;18.50;;
73575;SDS011;61859;49.204;8.140;2022-12-20T01:39:30;31.47;;;19.03;;
73575;SDS011;61859;49.204;8.140;2022-12-20T01:41:56;29.80;;;19.33;;
73575;SDS011;61859;49.204;8.140;2022-12-20T01:46:48;30.97;;;19.47;;
73575;SDS011;61859;49.204;8.140;2022-12-20T01:49:30;30.63;;;18.53;;
73575;SDS011;61859;49.204;8.140;2022-12-20T01:52:07;32.73;;;17.87;;
73575;SDS011;61859;49.204;8.140;2022-12-20T01:57:13;28.07;;;16.77;;
73575;SDS011;61859;49.204;8.140;2022-12-20T01:59:43;28.03;;;17.10;;
73575;SDS011;61859;49.204;8.140;2022-12-20T02:02:11;29.37;;;17.77;;
73575;SDS011;61859;49.204;8.140;2022-12-20T02:04:37;32.93;;;18.60;;
73575;SDS011;61859;49.204;8.140;2022-12-20T02:07:04;29.17;;;17.53;;
73575;SDS011;61859;49.204;8.140;2022-12-20T02:09:31;27.00;;;16.57;;
73575;SDS011;61859;49.204;8.140;2022-12-20T02:12:09;33.00;;;17.93;;
73575;SDS011;61859;49.204;8.140;2022-12-20T02:23:05;30.83;;;18.20;;
73575;SDS011;61859;49.204;8.140;2022-12-20T02:31:18;31.00;;;18.27;;
73575;SDS011;61859;49.204;8.140;2022-12-20T02:33:50;31.97;;;18.37;;
73575;SDS011;61859;49.204;8.140;2022-12-20T02:36:19;31.67;;;18.80;;
73575;SDS011;61859;49.204;8.140;2022-12-20T02:38:44;26.40;;;17.00;;
73575;SDS011;61859;49.204;8.140;2022-12-20T02:43:48;27.27;;;17.53;;
73575;SDS011;61859;49.204;8.140;2022-12-20T02:46:38;30.40;;;17.30;;
73575;SDS011;61859;49.204;8.140;2022-12-20T02:49:07;33.33;;;19.23;;
73575;SDS011;61859;49.204;8.140;2022-12-20T02:51:37;30.87;;;18.83;;
73575;SDS011;61859;49.204;8.140;2022-12-20T02:54:04;31.10;;;19.50;;
73575;SDS011;61859;49.204;8.140;2022-12-20T02:56:31;35.67;;;19.40;;
73575;SDS011;61859;49.204;8.140;2022-12-20T02:59:00;32.87;;;18.37;;
73575;SDS011;61859;49.204;8.140;2022-12-20T03:01:38;29.80;;;18.90;;
73575;SDS011;61859;49.204;8.140;2022-12-20T03:04:08;27.23;;;18.07;;
73575;SDS011;61859;49.204;8.140;2022-12-20T03:06:35;31.27;;;18.07;;
73575;SDS011;61859;49.204;8.140;2022-12-20T03:09:00;30.63;;;17.90;;
73575;SDS011;61859;49.204;8.140;2022-12-20T03:11:26;28.10;;;17.33;;
73575;SDS011;61859;49.204;8.140;2022-12-20T03:13:52;32.23;;;18.83;;
73575;SDS011;61859;49.204;8.140;2022-12-20T03:16:18;29.70;;;17.87;;
73575;SDS011;61859;49.204;8.140;2022-12-20T03:18:43;27.93;;;16.63;;
73575;SDS011;61859;49.204;8.140;2022-12-20T03:21:10;27.00;;;17.53;;
73575;SDS011;61859;49.204;8.140;2022-12-20T03:23:36;28.57;;;17.80;;
73575;SDS011;61859;49.204;8.140;2022-12-20T03:26:01;28.43;;;16.70;;
73575;SDS011;61859;49.204;8.140;2022-12-20T03:28:27;29.47;;;17.47;;
73575;SDS011;61859;49.204;8.140;2022-12-20T03:30:52;32.70;;;18.77;;
73575;SDS011;61859;49.204;8.140;2022-12-20T03:33:18;27.20;;;18.13;;
73575;SDS011;61859;49.204;8.140;2022-12-20T03:35:43;29.23;;;17.80;;
73575;SDS011;61859;49.204;8.140;2022-12-20T03:38:09;31.40;;;18.27;;
73575;SDS011;61859;49.204;8.140;2022-12-20T03:40:34;32.50;;;18.27;;
73575;SDS011;61859;49.204;8.140;2022-12-20T03:43:00;30.30;;;18.37;;
73575;SDS011;61859;49.204;8.140;2022-12-20T03:45:25;30.43;;;18.37;;
73575;SDS011;61859;49.204;8.140;2022-12-20T03:47:51;30.80;;;19.03;;
73575;SDS011;61859;49.204;8.140;2022-12-20T03:50:16;30.27;;;17.90;;
73575;SDS011;61859;49.204;8.140;2022-12-20T03:52:42;29.73;;;18.10;;
73575;SDS011;61859;49.204;8.140;2022-12-20T03:55:08;32.87;;;18.37;;
73575;SDS011;61859;49.204;8.140;2022-12-20T03:57:34;27.90;;;17.47;;
73575;SDS011;61859;49.204;8.140;2022-12-20T03:59:59;28.50;;;18.53;;
73575;SDS011;61859;49.204;8.140;2022-12-20T04:02:25;28.33;;;17.67;;
73575;SDS011;61859;49.204;8.140;2022-12-20T04:04:51;26.50;;;16.93;;
73575;SDS011;61859;49.204;8.140;2022-12-20T04:07:16;27.20;;;17.10;;
73575;SDS011;61859;49.204;8.140;2022-12-20T04:09:42;29.67;;;16.83;;
73575;SDS011;61859;49.204;8.140;2022-12-20T04:12:08;31.57;;;18.20;;
73575;SDS011;61859;49.204;8.140;2022-12-20T04:14:33;26.50;;;16.20;;
73575;SDS011;61859;49.204;8.140;2022-12-20T04:17:00;26.30;;;16.07;;
73575;SDS011;61859;49.204;8.140;2022-12-20T04:19:25;24.33;;;15.93;;
73575;SDS011;61859;49.204;8.140;2022-12-20T04:21:51;24.87;;;16.17;;
73575;SDS011;61859;49.204;8.140;2022-12-20T04:24:16;31.27;;;17.10;;
73575;SDS011;61859;49.204;8.140;2022-12-20T04:26:42;26.07;;;15.47;;
73575;SDS011;61859;49.204;8.140;2022-12-20T04:29:07;29.17;;;16.43;;
73575;SDS011;61859;49.204;8.140;2022-12-20T04:31:33;27.27;;;16.67;;
73575;SDS011;61859;49.204;8.140;2022-12-20T04:33:59;26.50;;;16.33;;
73575;SDS011;61859;49.204;8.140;2022-12-20T04:36:24;25.73;;;17.07;;
73575;SDS011;61859;49.204;8.140;2022-12-20T04:38:50;24.53;;;15.83;;
73575;SDS011;61859;49.204;8.140;2022-12-20T04:41:16;28.57;;;16.43;;
73575;SDS011;61859;49.204;8.140;2022-12-20T04:43:51;29.07;;;15.93;;
73575;SDS011;61859;49.204;8.140;2022-12-20T04:46:21;25.80;;;16.03;;
73575;SDS011;61859;49.204;8.140;2022-12-20T04:48:48;25.13;;;15.13;;
73575;SDS011;61859;49.204;8.140;2022-12-20T04:51:14;28.83;;;16.40;;
73575;SDS011;61859;49.204;8.140;2022-12-20T04:53:40;28.07;;;16.77;;
73575;SDS011;61859;49.204;8.140;2022-12-20T04:56:22;23.00;;;15.30;;
73575;SDS011;61859;49.204;8.140;2022-12-20T04:58:50;24.03;;;15.43;;
73575;SDS011;61859;49.204;8.140;2022-12-20T05:01:17;25.00;;;15.33;;
73575;SDS011;61859;49.204;8.140;2022-12-20T05:03:43;24.20;;;15.03;;
73575;SDS011;61859;49.204;8.140;2022-12-20T05:06:09;24.93;;;16.57;;
73575;SDS011;61859;49.204;8.140;2022-12-20T05:08:35;28.60;;;16.13;;
73575;SDS011;61859;49.204;8.140;2022-12-20T05:11:02;27.00;;;16.80;;
73575;SDS011;61859;49.204;8.140;2022-12-20T05:13:28;30.43;;;17.40;;
73575;SDS011;61859;49.204;8.140;2022-12-20T05:15:54;25.37;;;16.33;;
73575;SDS011;61859;49.204;8.140;2022-12-20T05:18:20;28.43;;;16.83;;
73575;SDS011;61859;49.204;8.140;2022-12-20T05:20:46;26.50;;;16.90;;
73575;SDS011;61859;49.204;8.140;2022-12-20T05:23:12;30.33;;;17.20;;
73575;SDS011;61859;49.204;8.140;2022-12-20T05:25:56;30.33;;;17.83;;
73575;SDS011;61859;49.204;8.140;2022-12-20T05:28:41;28.23;;;17.23;;
73575;SDS011;61859;49.204;8.140;2022-12-20T05:31:07;27.73;;;17.27;;
73575;SDS011;61859;49.204;8.140;2022-12-20T05:33:32;32.67;;;18.37;;
73575;SDS011;61859;49.204;8.140;2022-12-20T05:35:58;30.03;;;17.53;;
73575;SDS011;61859;49.204;8.140;2022-12-20T05:38:23;26.40;;;17.13;;
73575;SDS011;61859;49.204;8.140;2022-12-20T05:40:49;27.43;;;17.70;;
73575;SDS011;61859;49.204;8.140;2022-12-20T05:43:17;30.27;;;17.83;;
73575;SDS011;61859;49.204;8.140;2022-12-20T05:45:45;28.20;;;17.30;;
73575;SDS011;61859;49.204;8.140;2022-12-20T05:48:12;28.37;;;18.53;;
73575;SDS011;61859;49.204;8.140;2022-12-20T05:50:39;29.20;;;19.50;;
73575;SDS011;61859;49.204;8.140;2022-12-20T05:53:04;30.23;;;17.70;;
73575;SDS011;61859;49.204;8.140;2022-12-20T05:55:30;28.17;;;17.67;;
73575;SDS011;61859;49.204;8.140;2022-12-20T05:57:56;27.93;;;17.47;;
73575;SDS011;61859;49.204;8.140;2022-12-20T06:00:21;26.03;;;17.57;;
73575;SDS011;61859;49.204;8.140;2022-12-20T06:02:47;27.80;;;16.20;;
73575;SDS011;61859;49.204;8.140;2022-12-20T06:05:12;31.43;;;17.50;;
73575;SDS011;61859;49.204;8.140;2022-12-20T06:07:38;29.13;;;16.70;;
73575;SDS011;61859;49.204;8.140;2022-12-20T06:10:04;25.93;;;16.50;;
73575;SDS011;61859;49.204;8.140;2022-12-20T06:12:31;30.23;;;16.43;;
73575;SDS011;61859;49.204;8.140;2022-12-20T06:14:57;26.13;;;15.73;;
73575;SDS011;61859;49.204;8.140;2022-12-20T06:17:22;28.43;;;16.60;;
73575;SDS011;61859;49.204;8.140;2022-12-20T06:19:48;29.97;;;16.23;;
73575;SDS011;61859;49.204;8.140;2022-12-20T06:22:13;26.67;;;16.77;;
73575;SDS011;61859;49.204;8.140;2022-12-20T06:24:39;29.87;;;16.97;;
73575;SDS011;61859;49.204;8.140;2022-12-20T06:27:04;27.43;;;16.13;;
73575;SDS011;61859;49.204;8.140;2022-12-20T06:29:31;29.13;;;16.43;;
73575;SDS011;61859;49.204;8.140;2022-12-20T06:31:57;26.87;;;16.50;;
73575;SDS011;61859;49.204;8.140;2022-12-20T06:34:23;25.23;;;16.03;;
73575;SDS011;61859;49.204;8.140;2022-12-20T06:36:49;25.83;;;15.30;;
73575;SDS011;61859;49.204;8.140;2022-12-20T06:39:15;26.40;;;15.97;;
73575;SDS011;61859;49.204;8.140;2022-12-20T06:41:41;21.20;;;14.33;;
73575;SDS011;61859;49.204;8.140;2022-12-20T06:44:06;25.30;;;15.50;;
73575;SDS011;61859;49.204;8.140;2022-12-20T06:46:32;24.93;;;14.97;;
73575;SDS011;61859;49.204;8.140;2022-12-20T06:48:58;23.80;;;15.00;;
73575;SDS011;61859;49.204;8.140;2022-12-20T06:51:23;23.40;;;15.20;;
73575;SDS011;61859;49.204;8.140;2022-12-20T06:53:49;25.00;;;15.23;;
73575;SDS011;61859;49.204;8.140;2022-12-20T06:56:14;20.13;;;13.40;;
73575;SDS011;61859;49.204;8.140;2022-12-20T06:58:40;25.53;;;14.77;;
73575;SDS011;61859;49.204;8.140;2022-12-20T07:01:06;24.47;;;16.30;;
73575;SDS011;61859;49.204;8.140;2022-12-20T07:03:31;23.90;;;14.50;;
73575;SDS011;61859;49.204;8.140;2022-12-20T07:05:57;23.27;;;15.00;;
73575;SDS011;61859;49.204;8.140;2022-12-20T07:08:23;23.03;;;15.00;;
73575;SDS011;61859;49.204;8.140;2022-12-20T07:10:49;23.17;;;15.00;;
73575;SDS011;61859;49.204;8.140;2022-12-20T07:13:16;24.53;;;15.67;;
73575;SDS011;61859;49.204;8.140;2022-12-20T07:15:42;20.63;;;14.07;;
73575;SDS011;61859;49.204;8.140;2022-12-20T07:18:08;23.23;;;16.03;;
73575;SDS011;61859;49.204;8.140;2022-12-20T07:20:34;24.80;;;15.37;;
73575;SDS011;61859;49.204;8.140;2022-12-20T07:23:00;24.93;;;14.80;;
73575;SDS011;61859;49.204;8.140;2022-12-20T07:25:25;26.10;;;15.90;;
73575;SDS011;61859;49.204;8.140;2022-12-20T07:27:51;26.17;;;15.70;;
73575;SDS011;61859;49.204;8.140;2022-12-20T07:30:17;23.80;;;15.77;;
73575;SDS011;61859;49.204;8.140;2022-12-20T07:32:44;22.73;;;15.47;;
73575;SDS011;61859;49.204;8.140;2022-12-20T07:35:10;27.17;;;16.60;;
73575;SDS011;61859;49.204;8.140;2022-12-20T07:37:37;24.57;;;15.20;;
73575;SDS011;61859;49.204;8.140;2022-12-20T07:40:03;26.63;;;14.93;;
73575;SDS011;61859;49.204;8.140;2022-12-20T07:42:29;22.17;;;14.43;;
73575;SDS011;61859;49.204;8.140;2022-12-20T07:44:54;25.93;;;14.17;;
73575;SDS011;61859;49.204;8.140;2022-12-20T07:47:20;22.67;;;14.57;;
73575;SDS011;61859;49.204;8.140;2022-12-20T07:49:46;22.77;;;15.07;;
73575;SDS011;61859;49.204;8.140;2022-12-20T07:52:13;24.97;;;14.80;;
73575;SDS011;61859;49.204;8.140;2022-12-20T07:54:41;25.03;;;15.10;;
73575;SDS011;61859;49.204;8.140;2022-12-20T07:57:13;23.60;;;14.53;;
73575;SDS011;61859;49.204;8.140;2022-12-20T07:59:44;22.97;;;14.67;;
73575;SDS011;61859;49.204;8.140;2022-12-20T08:02:16;23.10;;;15.17;;
73575;SDS011;61859;49.204;8.140;2022-12-20T08:04:46;19.13;;;12.80;;
73575;SDS011;61859;49.204;8.140;2022-12-20T08:07:12;22.90;;;15.27;;
73575;SDS011;61859;49.204;8.140;2022-12-20T08:09:39;22.73;;;14.10;;
73575;SDS011;61859;49.204;8.140;2022-12-20T08:12:08;21.33;;;13.27;;
73575;SDS011;61859;49.204;8.140;2022-12-20T08:14:35;21.37;;;13.60;;
73575;SDS011;61859;49.204;8.140;2022-12-20T08:17:01;24.57;;;13.60;;
73575;SDS011;61859;49.204;8.140;2022-12-20T08:19:27;20.17;;;13.47;;
73575;SDS011;61859;49.204;8.140;2022-12-20T08:21:53;23.97;;;14.70;;
73575;SDS011;61859;49.204;8.140;2022-12-20T08:24:18;25.73;;;14.70;;
73575;SDS011;61859;49.204;8.140;2022-12-20T08:26:44;25.07;;;14.33;;
73575;SDS011;61859;49.204;8.140;2022-12-20T08:29:09;20.77;;;13.90;;
73575;SDS011;61859;49.204;8.140;2022-12-20T08:31:38;22.73;;;12.90;;
73575;SDS011;61859;49.204;8.140;2022-12-20T08:34:06;22.63;;;14.50;;
73575;SDS011;61859;49.204;8.140;2022-12-20T08:36:32;24.60;;;13.40;;
73575;SDS011;61859;49.204;8.140;2022-12-20T08:39:00;41.63;;;21.50;;
73575;SDS011;61859;49.204;8.140;2022-12-20T08:41:27;28.47;;;17.23;;
73575;SDS011;61859;49.204;8.140;2022-12-20T08:43:52;26.90;;;16.47;;
73575;SDS011;61859;49.204;8.140;2022-12-20T08:46:18;24.93;;;16.97;;
73575;SDS011;61859;49.204;8.140;2022-12-20T08:48:43;21.13;;;13.73;;
73575;SDS011;61859;49.204;8.140;2022-12-20T08:51:09;20.63;;;13.57;;
73575;SDS011;61859;49.204;8.140;2022-12-20T08:53:35;18.83;;;12.10;;
73575;SDS011;61859;49.204;8.140;2022-12-20T08:56:05;16.53;;;12.87;;
73575;SDS011;61859;49.204;8.140;2022-12-20T08:58:37;19.77;;;12.87;;
73575;SDS011;61859;49.204;8.140;2022-12-20T09:01:07;24.30;;;14.00;;
73575;SDS011;61859;49.204;8.140;2022-12-20T09:03:38;21.13;;;13.10;;
73575;SDS011;61859;49.204;8.140;2022-12-20T09:06:05;20.50;;;13.70;;
73575;SDS011;61859;49.204;8.140;2022-12-20T09:08:36;19.93;;;13.00;;
73575;SDS011;61859;49.204;8.140;2022-12-20T09:11:25;16.70;;;12.33;;
73575;SDS011;61859;49.204;8.140;2022-12-20T09:13:51;21.43;;;13.57;;
73575;SDS011;61859;49.204;8.140;2022-12-20T09:16:19;20.63;;;13.13;;
73575;SDS011;61859;49.204;8.140;2022-12-20T09:18:47;20.00;;;13.60;;
73575;SDS011;61859;49.204;8.140;2022-12-20T09:21:14;21.10;;;13.67;;
73575;SDS011;61859;49.204;8.140;2022-12-20T09:23:39;24.53;;;15.10;;
73575;SDS011;61859;49.204;8.140;2022-12-20T09:26:15;21.87;;;14.00;;
73575;SDS011;61859;49.204;8.140;2022-12-20T09:28:42;22.67;;;13.30;;
73575;SDS011;61859;49.204;8.140;2022-12-20T09:31:12;27.57;;;14.93;;
73575;SDS011;61859;49.204;8.140;2022-12-20T09:33:39;25.57;;;15.97;;
73575;SDS011;61859;49.204;8.140;2022-12-20T09:36:05;20.67;;;14.43;;
73575;SDS011;61859;49.204;8.140;2022-12-20T09:38:31;26.47;;;14.60;;
73575;SDS011;61859;49.204;8.140;2022-12-20T09:40:59;21.57;;;14.50;;
73575;SDS011;61859;49.204;8.140;2022-12-20T09:43:27;23.07;;;14.07;;
73575;SDS011;61859;49.204;8.140;2022-12-20T09:45:54;23.13;;;14.67;;
73575;SDS011;61859;49.204;8.140;2022-12-20T09:48:24;19.53;;;12.97;;
73575;SDS011;61859;49.204;8.140;2022-12-20T09:51:15;18.50;;;13.37;;
73575;SDS011;61859;49.204;8.140;2022-12-20T09:56:43;19.20;;;12.57;;
73575;SDS011;61859;49.204;8.140;2022-12-20T09:59:18;17.17;;;12.40;;
73575;SDS011;61859;49.204;8.140;2022-12-20T10:01:46;20.17;;;11.23;;
73575;SDS011;61859;49.204;8.140;2022-12-20T10:04:24;17.60;;;11.83;;
73575;SDS011;61859;49.204;8.140;2022-12-20T10:12:50;21.47;;;13.47;;
73575;SDS011;61859;49.204;8.140;2022-12-20T10:15:41;13.73;;;10.77;;
73575;SDS011;61859;49.204;8.140;2022-12-20T10:18:26;17.23;;;9.67;;
73575;SDS011;61859;49.204;8.140;2022-12-20T10:21:07;16.93;;;11.20;;
73575;SDS011;61859;49.204;8.140;2022-12-20T10:24:00;16.67;;;10.33;;
73575;SDS011;61859;49.204;8.140;2022-12-20T10:26:28;16.10;;;10.97;;
73575;SDS011;61859;49.204;8.140;2022-12-20T10:28:55;15.70;;;10.83;;
73575;SDS011;61859;49.204;8.140;2022-12-20T10:31:21;15.30;;;10.43;;
73575;SDS011;61859;49.204;8.140;2022-12-20T10:33:46;12.97;;;9.57;;
73575;SDS011;61859;49.204;8.140;2022-12-20T10:36:23;13.90;;;9.70;;
73575;SDS011;61859;49.204;8.140;2022-12-20T10:38:54;13.50;;;8.80;;
73575;SDS011;61859;49.204;8.140;2022-12-20T10:41:25;14.03;;;9.70;;
73575;SDS011;61859;49.204;8.140;2022-12-20T10:43:53;16.17;;;10.10;;
73575;SDS011;61859;49.204;8.140;2022-12-20T10:46:43;20.10;;;11.93;;
73575;SDS011;61859;49.204;8.140;2022-12-20T10:51:56;17.53;;;10.47;;
73575;SDS011;61859;49.204;8.140;2022-12-20T10:54:28;18.60;;;10.77;;
73575;SDS011;61859;49.204;8.140;2022-12-20T10:59:50;13.47;;;10.23;;
73575;SDS011;61859;49.204;8.140;2022-12-20T11:07:36;9.50;;;7.73;;
73575;SDS011;61859;49.204;8.140;2022-12-20T11:10:20;12.93;;;9.07;;
73575;SDS011;61859;49.204;8.140;2022-12-20T11:13:09;10.23;;;7.97;;
73575;SDS011;61859;49.204;8.140;2022-12-20T11:15:51;13.67;;;8.63;;
73575;SDS011;61859;49.204;8.140;2022-12-20T11:23:56;11.37;;;7.83;;
73575;SDS011;61859;49.204;8.140;2022-12-20T11:32:23;16.50;;;9.50;;
73575;SDS011;61859;49.204;8.140;2022-12-20T11:35:13;14.20;;;8.50;;
73575;SDS011;61859;49.204;8.140;2022-12-20T11:38:14;12.40;;;8.43;;
73575;SDS011;61859;49.204;8.140;2022-12-20T11:44:12;12.33;;;8.97;;
73575;SDS011;61859;49.204;8.140;2022-12-20T11:52:29;14.73;;;9.23;;
73575;SDS011;61859;49.204;8.140;2022-12-20T11:55:25;12.53;;;9.47;;
73575;SDS011;61859;49.204;8.140;2022-12-20T11:58:53;13.53;;;9.10;;
73575;SDS011;61859;49.204;8.140;2022-12-20T12:01:02;17.87;;;9.07;;
73575;SDS011;61859;49.204;8.140;2022-12-20T12:03:33;11.30;;;8.10;;
73575;SDS011;61859;49.204;8.140;2022-12-20T12:11:37;12.67;;;7.97;;
73575;SDS011;61859;49.204;8.140;2022-12-20T12:14:09;11.47;;;8.73;;
73575;SDS011;61859;49.204;8.140;2022-12-20T12:16:46;13.23;;;8.63;;
73575;SDS011;61859;49.204;8.140;2022-12-20T12:19:17;10.93;;;8.40;;
73575;SDS011;61859;49.204;8.140;2022-12-20T12:21:43;12.07;;;8.37;;
73575;SDS011;61859;49.204;8.140;2022-12-20T12:24:34;18.30;;;10.90;;
73575;SDS011;61859;49.204;8.140;2022-12-20T12:27:03;41.87;;;20.13;;
73575;SDS011;61859;49.204;8.140;2022-12-20T12:29:29;37.87;;;19.03;;
73575;SDS011;61859;49.204;8.140;2022-12-20T12:34:59;19.70;;;11.43;;
73575;SDS011;61859;49.204;8.140;2022-12-20T12:46:12;14.50;;;9.53;;
73575;SDS011;61859;49.204;8.140;2022-12-20T12:51:23;11.60;;;8.00;;
73575;SDS011;61859;49.204;8.140;2022-12-20T12:56:37;13.80;;;8.27;;
73575;SDS011;61859;49.204;8.140;2022-12-20T13:01:47;13.20;;;7.90;;
73575;SDS011;61859;49.204;8.140;2022-12-20T13:04:27;12.70;;;8.87;;
73575;SDS011;61859;49.204;8.140;2022-12-20T13:06:56;11.83;;;8.27;;
73575;SDS011;61859;49.204;8.140;2022-12-20T13:11:49;11.53;;;8.73;;
73575;SDS011;61859;49.204;8.140;2022-12-20T13:16:52;13.80;;;9.23;;
73575;SDS011;61859;49.204;8.140;2022-12-20T13:19:38;15.47;;;9.47;;
73575;SDS011;61859;49.204;8.140;2022-12-20T13:29:57;14.83;;;9.17;;
73575;SDS011;61859;49.204;8.140;2022-12-20T13:32:50;16.07;;;9.57;;
73575;SDS011;61859;49.204;8.140;2022-12-20T13:40:56;12.53;;;8.67;;
73575;SDS011;61859;49.204;8.140;2022-12-20T13:43:27;12.60;;;8.10;;
73575;SDS011;61859;49.204;8.140;2022-12-20T13:46:11;10.83;;;7.57;;
73575;SDS011;61859;49.204;8.140;2022-12-20T13:51:15;10.57;;;6.80;;
73575;SDS011;61859;49.204;8.140;2022-12-20T13:53:50;8.17;;;5.40;;
73575;SDS011;61859;49.204;8.140;2022-12-20T13:58:56;7.90;;;5.93;;
73575;SDS011;61859;49.204;8.140;2022-12-20T14:01:27;8.73;;;5.20;;
73575;SDS011;61859;49.204;8.140;2022-12-20T14:03:55;10.07;;;7.10;;
73575;SDS011;61859;49.204;8.140;2022-12-20T14:06:21;10.43;;;7.13;;
73575;SDS011;61859;49.204;8.140;2022-12-20T14:08:49;8.40;;;6.17;;
73575;SDS011;61859;49.204;8.140;2022-12-20T14:11:23;9.87;;;6.00;;
73575;SDS011;61859;49.204;8.140;2022-12-20T14:14:01;8.17;;;6.47;;
73575;SDS011;61859;49.204;8.140;2022-12-20T14:16:28;16.60;;;10.00;;
73575;SDS011;61859;49.204;8.140;2022-12-20T14:21:21;17.93;;;11.60;;
73575;SDS011;61859;49.204;8.140;2022-12-20T14:23:48;13.33;;;8.30;;
73575;SDS011;61859;49.204;8.140;2022-12-20T14:26:26;13.17;;;7.50;;
73575;SDS011;61859;49.204;8.140;2022-12-20T14:29:08;14.03;;;8.33;;
73575;SDS011;61859;49.204;8.140;2022-12-20T14:31:42;12.27;;;8.70;;
73575;SDS011;61859;49.204;8.140;2022-12-20T14:36:35;11.10;;;7.43;;
73575;SDS011;61859;49.204;8.140;2022-12-20T14:42:01;10.07;;;7.40;;
73575;SDS011;61859;49.204;8.140;2022-12-20T14:44:33;22.03;;;9.33;;
73575;SDS011;61859;49.204;8.140;2022-12-20T14:47:00;10.20;;;7.50;;
73575;SDS011;61859;49.204;8.140;2022-12-20T14:52:06;13.73;;;7.63;;
73575;SDS011;61859;49.204;8.140;2022-12-20T15:02:49;14.40;;;9.63;;
73575;SDS011;61859;49.204;8.140;2022-12-20T15:10:37;11.87;;;7.90;;
73575;SDS011;61859;49.204;8.140;2022-12-20T15:13:09;10.37;;;7.00;;
73575;SDS011;61859;49.204;8.140;2022-12-20T15:15:39;12.93;;;7.87;;
73575;SDS011;61859;49.204;8.140;2022-12-20T15:18:16;14.50;;;7.87;;
73575;SDS011;61859;49.204;8.140;2022-12-20T15:20:43;15.47;;;8.10;;
73575;SDS011;61859;49.204;8.140;2022-12-20T15:23:13;12.73;;;7.80;;
73575;SDS011;61859;49.204;8.140;2022-12-20T15:25:43;10.00;;;7.27;;
73575;SDS011;61859;49.204;8.140;2022-12-20T15:28:19;13.03;;;7.53;;
73575;SDS011;61859;49.204;8.140;2022-12-20T15:30:47;12.73;;;9.17;;
73575;SDS011;61859;49.204;8.140;2022-12-20T15:33:14;18.60;;;8.70;;
73575;SDS011;61859;49.204;8.140;2022-12-20T15:35:42;16.40;;;9.77;;
73575;SDS011;61859;49.204;8.140;2022-12-20T15:38:11;15.07;;;9.80;;
73575;SDS011;61859;49.204;8.140;2022-12-20T15:40:40;16.27;;;11.20;;
73575;SDS011;61859;49.204;8.140;2022-12-20T15:43:08;25.17;;;12.27;;
73575;SDS011;61859;49.204;8.140;2022-12-20T15:45:39;17.07;;;10.87;;
73575;SDS011;61859;49.204;8.140;2022-12-20T15:48:08;18.43;;;10.40;;
73575;SDS011;61859;49.204;8.140;2022-12-20T15:50:42;13.20;;;8.87;;
73575;SDS011;61859;49.204;8.140;2022-12-20T15:53:13;12.17;;;8.00;;
73575;SDS011;61859;49.204;8.140;2022-12-20T15:55:39;11.03;;;7.67;;
73575;SDS011;61859;49.204;8.140;2022-12-20T15:58:05;8.93;;;6.53;;
73575;SDS011;61859;49.204;8.140;2022-12-20T16:00:31;10.70;;;7.47;;
73575;SDS011;61859;49.204;8.140;2022-12-20T16:02:56;13.23;;;7.60;;
73575;SDS011;61859;49.204;8.140;2022-12-20T16:05:25;10.33;;;7.23;;
73575;SDS011;61859;49.204;8.140;2022-12-20T16:07:50;10.87;;;7.90;;
73575;SDS011;61859;49.204;8.140;2022-12-20T16:10:16;13.57;;;8.27;;
73575;SDS011;61859;49.204;8.140;2022-12-20T16:15:19;13.83;;;9.53;;
73575;SDS011;61859;49.204;8.140;2022-12-20T16:17:46;14.57;;;9.37;;
73575;SDS011;61859;49.204;8.140;2022-12-20T16:20:12;18.20;;;11.10;;
73575;SDS011;61859;49.204;8.140;2022-12-20T16:22:37;17.50;;;10.40;;
73575;SDS011;61859;49.204;8.140;2022-12-20T16:25:03;14.80;;;10.60;;
73575;SDS011;61859;49.204;8.140;2022-12-20T16:27:29;16.27;;;10.80;;
73575;SDS011;61859;49.204;8.140;2022-12-20T16:29:55;16.83;;;10.87;;
73575;SDS011;61859;49.204;8.140;2022-12-20T16:32:20;13.47;;;9.93;;
73575;SDS011;61859;49.204;8.140;2022-12-20T16:34:47;21.17;;;10.57;;
73575;SDS011;61859;49.204;8.140;2022-12-20T16:37:13;13.80;;;10.33;;
73575;SDS011;61859;49.204;8.140;2022-12-20T16:39:39;13.13;;;9.97;;
73575;SDS011;61859;49.204;8.140;2022-12-20T16:42:11;17.53;;;11.50;;
73575;SDS011;61859;49.204;8.140;2022-12-20T16:44:40;15.67;;;10.10;;
73575;SDS011;61859;49.204;8.140;2022-12-20T16:47:08;16.27;;;10.37;;
73575;SDS011;61859;49.204;8.140;2022-12-20T16:49:34;14.67;;;9.13;;
73575;SDS011;61859;49.204;8.140;2022-12-20T16:52:00;14.20;;;9.83;;
73575;SDS011;61859;49.204;8.140;2022-12-20T16:54:28;15.63;;;9.23;;